Glou Point, Virginia
Current Conditions -  °F | °C
As of 11:09 AM on Wednesday 26 Nov 2014 (Local Time) from KPHF Reporting Station
Heavy Rain Heavy Rain  
Wind Chill: 40°   Ceiling: 1000
Heat Index: 47°   Visibility: 1.5mi
Dew Point: 42°   Wind: 18mph
Humidity: 83%   Direction: 10°N
Pressure: 29.88"   Gusts: 28mph
Location:  37.2577°N, 76.4965°W
Report Text: KPHF 261609Z 01016G24KT 1 1/2SM +RA BKN010 BKN016 OVC030 08/06 A2988 RMK AO2 P0005 T00830056
Loading
Personal Weather Stations






























Interactive Weather Map New forecast layout! Learn more

10-Day Weather Forecast

Advertisements
Track Severe Weather on mobile